sensor_id;sensor_type;location;lat;lon;timestamp;pressure;altitude;pressure_sealevel;temperature;humidity
36600;BME280;35385;55.668;37.508;2022-09-25T00:00:57;97351.66;;;7.34;100.00
36600;BME280;35385;55.668;37.508;2022-09-25T00:01:58;97348.81;;;7.36;100.00
36600;BME280;35385;55.668;37.508;2022-09-25T00:02:58;97268.53;;;6.84;100.00
36600;BME280;35385;55.668;37.508;2022-09-25T00:03:59;97283.69;;;6.91;100.00
36600;BME280;35385;55.668;37.508;2022-09-25T00:05:00;97345.84;;;7.31;100.00
36600;BME280;35385;55.668;37.508;2022-09-25T00:06:10;97346.00;;;7.29;100.00
36600;BME280;35385;55.668;37.508;2022-09-25T00:07:11;97308.59;;;7.06;100.00
36600;BME280;35385;55.668;37.508;2022-09-25T00:08:12;97285.50;;;6.91;100.00
36600;BME280;35385;55.668;37.508;2022-09-25T00:09:13;97344.97;;;7.22;100.00
36600;BME280;35385;55.668;37.508;2022-09-25T00:10:17;97346.16;;;7.28;100.00
36600;BME280;35385;55.668;37.508;2022-09-25T00:11:31;97351.66;;;7.34;100.00
36600;BME280;35385;55.668;37.508;2022-09-25T00:12:32;97327.91;;;7.33;100.00
36600;BME280;35385;55.668;37.508;2022-09-25T00:13:32;97355.84;;;7.53;100.00
36600;BME280;35385;55.668;37.508;2022-09-25T00:14:33;97294.84;;;7.11;100.00
36600;BME280;35385;55.668;37.508;2022-09-25T00:15:34;97342.03;;;7.33;100.00
36600;BME280;35385;55.668;37.508;2022-09-25T00:16:35;97356.47;;;7.39;100.00
36600;BME280;35385;55.668;37.508;2022-09-25T00:17:35;97335.69;;;7.26;100.00
36600;BME280;35385;55.668;37.508;2022-09-25T00:18:36;97314.41;;;7.10;100.00
36600;BME280;35385;55.668;37.508;2022-09-25T00:19:55;97309.75;;;7.04;100.00
36600;BME280;35385;55.668;37.508;2022-09-25T00:21:01;97352.97;;;7.38;100.00
36600;BME280;35385;55.668;37.508;2022-09-25T00:22:03;97355.31;;;7.41;100.00
36600;BME280;35385;55.668;37.508;2022-09-25T00:23:04;97365.63;;;7.44;100.00
36600;BME280;35385;55.668;37.508;2022-09-25T00:24:07;97372.91;;;7.42;100.00
36600;BME280;35385;55.668;37.508;2022-09-25T00:25:11;97293.63;;;6.97;100.00
36600;BME280;35385;55.668;37.508;2022-09-25T00:26:16;97352.97;;;7.30;100.00
36600;BME280;35385;55.668;37.508;2022-09-25T00:27:17;97350.00;;;7.33;100.00
36600;BME280;35385;55.668;37.508;2022-09-25T00:28:18;97375.88;;;7.39;100.00
36600;BME280;35385;55.668;37.508;2022-09-25T00:29:19;97346.16;;;7.28;100.00
36600;BME280;35385;55.668;37.508;2022-09-25T00:30:22;97322.72;;;7.15;100.00
36600;BME280;35385;55.668;37.508;2022-09-25T00:31:23;97361.47;;;7.42;100.00
36600;BME280;35385;55.668;37.508;2022-09-25T00:32:24;97360.94;;;7.38;100.00
36600;BME280;35385;55.668;37.508;2022-09-25T00:33:24;97359.78;;;7.41;100.00
36600;BME280;35385;55.668;37.508;2022-09-25T00:34:25;97361.97;;;7.45;100.00
36600;BME280;35385;55.668;37.508;2022-09-25T00:35:25;97260.75;;;6.82;100.00
36600;BME280;35385;55.668;37.508;2022-09-25T00:36:26;97367.59;;;7.42;100.00
36600;BME280;35385;55.668;37.508;2022-09-25T00:37:27;97362.44;;;7.41;100.00
36600;BME280;35385;55.668;37.508;2022-09-25T00:38:28;97298.78;;;6.99;100.00
36600;BME280;35385;55.668;37.508;2022-09-25T00:39:29;97368.25;;;7.36;100.00
36600;BME280;35385;55.668;37.508;2022-09-25T00:40:30;97360.94;;;7.30;100.00
36600;BME280;35385;55.668;37.508;2022-09-25T00:41:30;97338.81;;;7.22;100.00
36600;BME280;35385;55.668;37.508;2022-09-25T00:42:31;97374.06;;;7.32;100.00
36600;BME280;35385;55.668;37.508;2022-09-25T00:43:38;97360.78;;;7.32;100.00
36600;BME280;35385;55.668;37.508;2022-09-25T00:45:01;97354.44;;;7.25;100.00
36600;BME280;35385;55.668;37.508;2022-09-25T00:46:06;97371.88;;;7.27;100.00
36600;BME280;35385;55.668;37.508;2022-09-25T00:47:10;97331.09;;;6.94;100.00
36600;BME280;35385;55.668;37.508;2022-09-25T00:48:14;97350.63;;;7.19;100.00
36600;BME280;35385;55.668;37.508;2022-09-25T00:49:18;97357.75;;;7.27;100.00
36600;BME280;35385;55.668;37.508;2022-09-25T00:50:52;97366.25;;;7.38;100.00
36600;BME280;35385;55.668;37.508;2022-09-25T00:52:01;97367.25;;;7.37;100.00
36600;BME280;35385;55.668;37.508;2022-09-25T00:53:07;97307.41;;;7.01;100.00
36600;BME280;35385;55.668;37.508;2022-09-25T00:54:17;97327.34;;;7.13;100.00
36600;BME280;35385;55.668;37.508;2022-09-25T00:55:19;97362.28;;;7.34;100.00
36600;BME280;35385;55.668;37.508;2022-09-25T00:56:24;97308.59;;;7.06;100.00
36600;BME280;35385;55.668;37.508;2022-09-25T00:57:27;97377.22;;;7.35;100.00
36600;BME280;35385;55.668;37.508;2022-09-25T00:58:32;97347.66;;;7.30;100.00
36600;BME280;35385;55.668;37.508;2022-09-25T00:59:45;97308.25;;;7.09;100.00
36600;BME280;35385;55.668;37.508;2022-09-25T01:00:47;97380.25;;;7.49;100.00
36600;BME280;35385;55.668;37.508;2022-09-25T01:01:47;97361.31;;;7.52;100.00
36600;BME280;35385;55.668;37.508;2022-09-25T01:02:51;97375.56;;;7.51;100.00
36600;BME280;35385;55.668;37.508;2022-09-25T01:03:52;97359.00;;;7.49;100.00
36600;BME280;35385;55.668;37.508;2022-09-25T01:05:05;97376.59;;;7.58;100.00
36600;BME280;35385;55.668;37.508;2022-09-25T01:06:06;97378.91;;;7.53;100.00
36600;BME280;35385;55.668;37.508;2022-09-25T01:07:08;97349.69;;;7.53;100.00
36600;BME280;35385;55.668;37.508;2022-09-25T01:08:13;97349.38;;;7.48;100.00
36600;BME280;35385;55.668;37.508;2022-09-25T01:09:15;97318.41;;;7.22;100.00
36600;BME280;35385;55.668;37.508;2022-09-25T01:10:17;97365.31;;;7.56;100.00
36600;BME280;35385;55.668;37.508;2022-09-25T01:11:18;97366.13;;;7.56;100.00
36600;BME280;35385;55.668;37.508;2022-09-25T01:12:19;97369.94;;;7.54;100.00
36600;BME280;35385;55.668;37.508;2022-09-25T01:13:19;97301.50;;;7.15;100.00
36600;BME280;35385;55.668;37.508;2022-09-25T01:14:20;97377.25;;;7.52;100.00
36600;BME280;35385;55.668;37.508;2022-09-25T01:15:30;97376.97;;;7.63;100.00
36600;BME280;35385;55.668;37.508;2022-09-25T01:18:03;97318.81;;;7.35;100.00
36600;BME280;35385;55.668;37.508;2022-09-25T01:25:14;97379.78;;;7.69;100.00
36600;BME280;35385;55.668;37.508;2022-09-25T01:30:19;97386.88;;;7.53;100.00
36600;BME280;35385;55.668;37.508;2022-09-25T01:31:29;97387.53;;;7.55;100.00
36600;BME280;35385;55.668;37.508;2022-09-25T01:32:37;97386.41;;;7.57;100.00
36600;BME280;35385;55.668;37.508;2022-09-25T01:33:45;97377.25;;;7.52;100.00
36600;BME280;35385;55.668;37.508;2022-09-25T01:37:28;97391.88;;;7.56;100.00
36600;BME280;35385;55.668;37.508;2022-09-25T01:40:12;97394.69;;;7.54;100.00
36600;BME280;35385;55.668;37.508;2022-09-25T01:41:34;97390.38;;;7.53;100.00
36600;BME280;35385;55.668;37.508;2022-09-25T01:42:45;97392.19;;;7.53;100.00
36600;BME280;35385;55.668;37.508;2022-09-25T01:45:13;97392.19;;;7.53;100.00
36600;BME280;35385;55.668;37.508;2022-09-25T01:46:19;97383.53;;;7.42;100.00
36600;BME280;35385;55.668;37.508;2022-09-25T01:47:25;97385.88;;;7.45;100.00
36600;BME280;35385;55.668;37.508;2022-09-25T01:48:29;97378.75;;;7.46;100.00
36600;BME280;35385;55.668;37.508;2022-09-25T01:49:51;97392.53;;;7.58;100.00
36600;BME280;35385;55.668;37.508;2022-09-25T01:51:04;97332.50;;;7.15;100.00
36600;BME280;35385;55.668;37.508;2022-09-25T01:52:11;97391.50;;;7.51;100.00
36600;BME280;35385;55.668;37.508;2022-09-25T01:53:17;97400.00;;;7.54;100.00
36600;BME280;35385;55.668;37.508;2022-09-25T01:54:24;97388.84;;;7.42;100.00
36600;BME280;35385;55.668;37.508;2022-09-25T01:55:34;97393.53;;;7.49;100.00
36600;BME280;35385;55.668;37.508;2022-09-25T01:56:41;97410.28;;;7.49;100.00
36600;BME280;35385;55.668;37.508;2022-09-25T01:57:50;97390.53;;;7.52;100.00
36600;BME280;35385;55.668;37.508;2022-09-25T01:58:55;97388.53;;;7.45;100.00
36600;BME280;35385;55.668;37.508;2022-09-25T02:00:05;97403.81;;;7.52;100.00
36600;BME280;35385;55.668;37.508;2022-09-25T02:01:21;97378.03;;;7.36;100.00
36600;BME280;35385;55.668;37.508;2022-09-25T02:02:30;97408.63;;;7.56;100.00
36600;BME280;35385;55.668;37.508;2022-09-25T02:03:41;97409.84;;;7.70;100.00
36600;BME280;35385;55.668;37.508;2022-09-25T02:04:50;97412.34;;;7.71;100.00
36600;BME280;35385;55.668;37.508;2022-09-25T02:06:00;97406.34;;;7.69;100.00
36600;BME280;35385;55.668;37.508;2022-09-25T02:07:03;97358.00;;;7.50;100.00
36600;BME280;35385;55.668;37.508;2022-09-25T02:08:13;97408.53;;;7.82;100.00
36600;BME280;35385;55.668;37.508;2022-09-25T02:09:31;97397.56;;;7.77;100.00
36600;BME280;35385;55.668;37.508;2022-09-25T02:10:40;97414.66;;;7.74;100.00
36600;BME280;35385;55.668;37.508;2022-09-25T02:11:48;97358.28;;;7.38;100.00
36600;BME280;35385;55.668;37.508;2022-09-25T02:12:53;97401.69;;;7.63;100.00
36600;BME280;35385;55.668;37.508;2022-09-25T02:13:58;97362.56;;;7.23;100.00
36600;BME280;35385;55.668;37.508;2022-09-25T02:15:09;97399.53;;;7.67;100.00
36600;BME280;35385;55.668;37.508;2022-09-25T02:16:15;97411.34;;;7.80;100.00
36600;BME280;35385;55.668;37.508;2022-09-25T02:17:28;97417.84;;;7.86;100.00
36600;BME280;35385;55.668;37.508;2022-09-25T02:18:49;97411.53;;;7.87;100.00
36600;BME280;35385;55.668;37.508;2022-09-25T02:20:09;97417.31;;;7.82;100.00
36600;BME280;35385;55.668;37.508;2022-09-25T02:21:52;97417.84;;;7.86;100.00
36600;BME280;35385;55.668;37.508;2022-09-25T02:23:23;97414.00;;;7.80;100.00
36600;BME280;35385;55.668;37.508;2022-09-25T02:24:32;97401.34;;;7.58;100.00
36600;BME280;35385;55.668;37.508;2022-09-25T02:25:37;97412.50;;;7.70;100.00
36600;BME280;35385;55.668;37.508;2022-09-25T02:26:40;97412.66;;;7.68;100.00
36600;BME280;35385;55.668;37.508;2022-09-25T02:27:40;97386.25;;;7.59;100.00
36600;BME280;35385;55.668;37.508;2022-09-25T02:28:41;97418.13;;;7.67;100.00
36600;BME280;35385;55.668;37.508;2022-09-25T02:29:42;97402.84;;;7.61;100.00
36600;BME280;35385;55.668;37.508;2022-09-25T02:30:44;97418.94;;;7.67;100.00
36600;BME280;35385;55.668;37.508;2022-09-25T02:31:53;97413.81;;;7.66;100.00
36600;BME280;35385;55.668;37.508;2022-09-25T02:32:56;97422.75;;;7.65;100.00
36600;BME280;35385;55.668;37.508;2022-09-25T02:33:57;97379.88;;;7.43;100.00
36600;BME280;35385;55.668;37.508;2022-09-25T02:34:58;97399.19;;;7.62;100.00
36600;BME280;35385;55.668;37.508;2022-09-25T02:36:00;97413.00;;;7.73;100.00
36600;BME280;35385;55.668;37.508;2022-09-25T02:37:11;97425.16;;;7.84;100.00
36600;BME280;35385;55.668;37.508;2022-09-25T02:38:12;97400.56;;;7.74;100.00
36600;BME280;35385;55.668;37.508;2022-09-25T02:39:15;97410.69;;;7.87;100.00
36600;BME280;35385;55.668;37.508;2022-09-25T02:40:18;97414.19;;;7.95;100.00
36600;BME280;35385;55.668;37.508;2022-09-25T02:42:46;97365.47;;;7.54;100.00
36600;BME280;35385;55.668;37.508;2022-09-25T02:44:04;97415.84;;;7.88;100.00
36600;BME280;35385;55.668;37.508;2022-09-25T02:45:32;97418.16;;;7.83;100.00
36600;BME280;35385;55.668;37.508;2022-09-25T02:49:15;97299.91;;;6.88;100.00
36600;BME280;35385;55.668;37.508;2022-09-25T02:54:51;97426.28;;;7.81;100.00
36600;BME280;35385;55.668;37.508;2022-09-25T02:56:01;97425.81;;;7.78;100.00
36600;BME280;35385;55.668;37.508;2022-09-25T02:58:46;97356.50;;;7.55;100.00
36600;BME280;35385;55.668;37.508;2022-09-25T02:59:53;97429.50;;;8.01;100.00
36600;BME280;35385;55.668;37.508;2022-09-25T03:00:56;97428.19;;;8.05;100.00
36600;BME280;35385;55.668;37.508;2022-09-25T03:01:58;97423.19;;;8.10;100.00
36600;BME280;35385;55.668;37.508;2022-09-25T03:03:00;97378.97;;;7.85;100.00
36600;BME280;35385;55.668;37.508;2022-09-25T03:04:04;97429.03;;;8.22;100.00
36600;BME280;35385;55.668;37.508;2022-09-25T03:05:06;97424.88;;;8.20;100.00
36600;BME280;35385;55.668;37.508;2022-09-25T03:06:10;97439.16;;;8.27;100.00
36600;BME280;35385;55.668;37.508;2022-09-25T03:07:10;97370.34;;;7.91;100.00
36600;BME280;35385;55.668;37.508;2022-09-25T03:08:11;97434.03;;;8.33;100.00
36600;BME280;35385;55.668;37.508;2022-09-25T03:09:33;97438.53;;;8.33;100.00
36600;BME280;35385;55.668;37.508;2022-09-25T03:10:34;97427.50;;;8.28;100.00
36600;BME280;35385;55.668;37.508;2022-09-25T03:11:37;97422.19;;;8.28;100.00
36600;BME280;35385;55.668;37.508;2022-09-25T03:12:42;97385.63;;;8.05;100.00
36600;BME280;35385;55.668;37.508;2022-09-25T03:13:43;97432.69;;;8.37;100.00
36600;BME280;35385;55.668;37.508;2022-09-25T03:14:44;97427.50;;;8.28;100.00
36600;BME280;35385;55.668;37.508;2022-09-25T03:15:49;97439.19;;;8.35;100.00
36600;BME280;35385;55.668;37.508;2022-09-25T03:16:52;97405.91;;;8.14;100.00
36600;BME280;35385;55.668;37.508;2022-09-25T03:17:55;97427.19;;;8.31;100.00
36600;BME280;35385;55.668;37.508;2022-09-25T03:18:57;97449.97;;;8.41;100.00
36600;BME280;35385;55.668;37.508;2022-09-25T03:19:57;97440.53;;;8.47;100.00
36600;BME280;35385;55.668;37.508;2022-09-25T03:20:58;97432.50;;;8.31;100.00
36600;BME280;35385;55.668;37.508;2022-09-25T03:21:59;97442.50;;;8.37;100.00
36600;BME280;35385;55.668;37.508;2022-09-25T03:23:00;97399.44;;;8.17;100.00
36600;BME280;35385;55.668;37.508;2022-09-25T03:24:01;97459.47;;;8.44;100.00
36600;BME280;35385;55.668;37.508;2022-09-25T03:25:02;97441.34;;;8.39;100.00
36600;BME280;35385;55.668;37.508;2022-09-25T03:26:06;97444.34;;;8.36;100.00
36600;BME280;35385;55.668;37.508;2022-09-25T03:27:06;97455.31;;;8.41;100.00
36600;BME280;35385;55.668;37.508;2022-09-25T03:28:11;97387.47;;;8.05;100.00
36600;BME280;35385;55.668;37.508;2022-09-25T03:29:15;97461.13;;;8.45;100.00
36600;BME280;35385;55.668;37.508;2022-09-25T03:30:16;97453.66;;;8.48;100.00
36600;BME280;35385;55.668;37.508;2022-09-25T03:31:17;97440.00;;;8.43;100.00
36600;BME280;35385;55.668;37.508;2022-09-25T03:32:17;97462.47;;;8.57;100.00
36600;BME280;35385;55.668;37.508;2022-09-25T03:33:18;97466.13;;;8.56;100.00
36600;BME280;35385;55.668;37.508;2022-09-25T03:34:19;97463.44;;;8.56;100.00
36600;BME280;35385;55.668;37.508;2022-09-25T03:35:20;97362.53;;;7.98;100.00
36600;BME280;35385;55.668;37.508;2022-09-25T03:36:22;97459.81;;;8.49;100.00
36600;BME280;35385;55.668;37.508;2022-09-25T03:37:23;97421.22;;;8.21;100.00
36600;BME280;35385;55.668;37.508;2022-09-25T03:38:27;97467.63;;;8.42;100.00
36600;BME280;35385;55.668;37.508;2022-09-25T03:39:27;97472.44;;;8.47;100.00
36600;BME280;35385;55.668;37.508;2022-09-25T03:40:28;97461.13;;;8.45;100.00
36600;BME280;35385;55.668;37.508;2022-09-25T03:41:30;97473.44;;;8.46;100.00
36600;BME280;35385;55.668;37.508;2022-09-25T03:42:31;97481.25;;;8.39;100.00
36600;BME280;35385;55.668;37.508;2022-09-25T03:43:32;97434.66;;;8.19;100.00
36600;BME280;35385;55.668;37.508;2022-09-25T03:44:35;97477.06;;;8.37;100.00
36600;BME280;35385;55.668;37.508;2022-09-25T03:45:35;97456.09;;;8.26;100.00
36600;BME280;35385;55.668;37.508;2022-09-25T03:46:36;97465.75;;;8.27;100.00
36600;BME280;35385;55.668;37.508;2022-09-25T03:47:37;97468.72;;;8.24;100.00
36600;BME280;35385;55.668;37.508;2022-09-25T03:48:38;97471.06;;;8.19;100.00
36600;BME280;35385;55.668;37.508;2022-09-25T03:49:39;97466.75;;;8.18;100.00
36600;BME280;35385;55.668;37.508;2022-09-25T03:50:39;97417.69;;;7.88;100.00
36600;BME280;35385;55.668;37.508;2022-09-25T03:51:41;97467.06;;;8.23;100.00
36600;BME280;35385;55.668;37.508;2022-09-25T03:52:41;97468.72;;;8.24;100.00
36600;BME280;35385;55.668;37.508;2022-09-25T03:53:42;97414.50;;;7.84;100.00
36600;BME280;35385;55.668;37.508;2022-09-25T03:54:45;97457.09;;;8.16;100.00
36600;BME280;35385;55.668;37.508;2022-09-25T03:55:46;97430.81;;;7.97;100.00
36600;BME280;35385;55.668;37.508;2022-09-25T03:56:47;97472.72;;;8.28;100.00
36600;BME280;35385;55.668;37.508;2022-09-25T03:57:50;97483.38;;;8.20;100.00
36600;BME280;35385;55.668;37.508;2022-09-25T03:58:52;97487.69;;;8.21;100.00
36600;BME280;35385;55.668;37.508;2022-09-25T03:59:53;97485.69;;;8.14;100.00
36600;BME280;35385;55.668;37.508;2022-09-25T04:00:54;97420.31;;;7.71;100.00
36600;BME280;35385;55.668;37.508;2022-09-25T04:01:56;97464.41;;;8.06;100.00
36600;BME280;35385;55.668;37.508;2022-09-25T04:02:57;97489.84;;;8.17;100.00
36600;BME280;35385;55.668;37.508;2022-09-25T04:03:58;97423.31;;;7.76;100.00
36600;BME280;35385;55.668;37.508;2022-09-25T04:05:02;97438.09;;;7.79;100.00
36600;BME280;35385;55.668;37.508;2022-09-25T04:06:05;97475.69;;;7.92;100.00
36600;BME280;35385;55.668;37.508;2022-09-25T04:07:09;97489.75;;;7.85;100.00
36600;BME280;35385;55.668;37.508;2022-09-25T04:08:10;97487.56;;;7.80;100.00
36600;BME280;35385;55.668;37.508;2022-09-25T04:09:11;97435.81;;;7.42;100.00
36600;BME280;35385;55.668;37.508;2022-09-25T04:10:11;97498.03;;;7.73;100.00
36600;BME280;35385;55.668;37.508;2022-09-25T04:11:17;97484.31;;;7.52;100.00
36600;BME280;35385;55.668;37.508;2022-09-25T04:12:17;97491.66;;;7.58;100.00
36600;BME280;35385;55.668;37.508;2022-09-25T04:13:18;97485.16;;;7.53;100.00
36600;BME280;35385;55.668;37.508;2022-09-25T04:14:19;97493.47;;;7.50;100.00
36600;BME280;35385;55.668;37.508;2022-09-25T04:15:20;97512.25;;;7.56;100.00
36600;BME280;35385;55.668;37.508;2022-09-25T04:16:24;97501.94;;;7.53;100.00
36600;BME280;35385;55.668;37.508;2022-09-25T04:17:25;97501.09;;;7.53;100.00
36600;BME280;35385;55.668;37.508;2022-09-25T04:18:27;97467.78;;;7.24;100.00
36600;BME280;35385;55.668;37.508;2022-09-25T04:19:30;97488.09;;;7.33;100.00
36600;BME280;35385;55.668;37.508;2022-09-25T04:20:31;97500.41;;;7.42;100.00
36600;BME280;35385;55.668;37.508;2022-09-25T04:21:32;97501.75;;;7.47;100.00
36600;BME280;35385;55.668;37.508;2022-09-25T04:22:32;97505.09;;;7.49;100.00
36600;BME280;35385;55.668;37.508;2022-09-25T04:23:34;97455.75;;;7.12;100.00
36600;BME280;35385;55.668;37.508;2022-09-25T04:24:35;97491.06;;;7.38;100.00
36600;BME280;35385;55.668;37.508;2022-09-25T04:25:47;97511.69;;;7.44;100.00
36600;BME280;35385;55.668;37.508;2022-09-25T04:26:48;97444.97;;;7.05;100.00
36600;BME280;35385;55.668;37.508;2022-09-25T04:27:54;97514.53;;;7.51;100.00
36600;BME280;35385;55.668;37.508;2022-09-25T04:28:54;97509.72;;;7.47;100.00
36600;BME280;35385;55.668;37.508;2022-09-25T04:29:55;97464.09;;;7.17;100.00
36600;BME280;35385;55.668;37.508;2022-09-25T04:30:56;97460.25;;;7.12;100.00
36600;BME280;35385;55.668;37.508;2022-09-25T04:31:57;97453.38;;;7.01;100.00
36600;BME280;35385;55.668;37.508;2022-09-25T04:33:16;97476.97;;;7.04;100.00
36600;BME280;35385;55.668;37.508;2022-09-25T04:34:35;97503.66;;;7.28;100.00
36600;BME280;35385;55.668;37.508;2022-09-25T04:35:36;97496.97;;;7.24;100.00
36600;BME280;35385;55.668;37.508;2022-09-25T04:36:36;97501.28;;;7.17;100.00
36600;BME280;35385;55.668;37.508;2022-09-25T04:37:37;97453.28;;;6.85;100.00
36600;BME280;35385;55.668;37.508;2022-09-25T04:38:38;97516.72;;;7.22;100.00
36600;BME280;35385;55.668;37.508;2022-09-25T04:39:38;97511.91;;;7.25;100.00
36600;BME280;35385;55.668;37.508;2022-09-25T04:40:39;97530.72;;;7.32;100.00
36600;BME280;35385;55.668;37.508;2022-09-25T04:41:39;97523.63;;;7.40;100.00
36600;BME280;35385;55.668;37.508;2022-09-25T04:42:42;97529.16;;;7.47;100.00
36600;BME280;35385;55.668;37.508;2022-09-25T04:43:43;97530.84;;;7.56;100.00
36600;BME280;35385;55.668;37.508;2022-09-25T04:44:43;97529.00;;;7.57;100.00
36600;BME280;35385;55.668;37.508;2022-09-25T04:45:44;97531.38;;;7.68;100.00
36600;BME280;35385;55.668;37.508;2022-09-25T04:46:46;97515.25;;;7.61;100.00
36600;BME280;35385;55.668;37.508;2022-09-25T04:47:46;97538.25;;;7.78;100.00
36600;BME280;35385;55.668;37.508;2022-09-25T04:48:47;97537.75;;;7.83;100.00
36600;BME280;35385;55.668;37.508;2022-09-25T04:49:48;97538.06;;;7.72;100.00
36600;BME280;35385;55.668;37.508;2022-09-25T04:50:49;97540.09;;;7.86;100.00
36600;BME280;35385;55.668;37.508;2022-09-25T04:51:50;97531.81;;;7.89;100.00
36600;BME280;35385;55.668;37.508;2022-09-25T04:52:51;97537.28;;;7.96;100.00
36600;BME280;35385;55.668;37.508;2022-09-25T04:53:52;97520.81;;;7.84;100.00
36600;BME280;35385;55.668;37.508;2022-09-25T04:54:53;97537.44;;;7.94;100.00
36600;BME280;35385;55.668;37.508;2022-09-25T04:55:53;97515.75;;;7.65;100.00
36600;BME280;35385;55.668;37.508;2022-09-25T04:56:55;97544.25;;;7.89;100.00
36600;BME280;35385;55.668;37.508;2022-09-25T04:57:57;97548.66;;;7.64;100.00
36600;BME280;35385;55.668;37.508;2022-09-25T04:58:58;97489.97;;;7.15;100.00
36600;BME280;35385;55.668;37.508;2022-09-25T04:59:58;97520.19;;;7.22;100.00
36600;BME280;35385;55.668;37.508;2022-09-25T05:01:01;97555.03;;;7.45;100.00
36600;BME280;35385;55.668;37.508;2022-09-25T05:02:02;97548.81;;;7.36;100.00
36600;BME280;35385;55.668;37.508;2022-09-25T05:03:03;97547.81;;;7.29;100.00
36600;BME280;35385;55.668;37.508;2022-09-25T05:04:04;97547.75;;;7.21;100.00
36600;BME280;35385;55.668;37.508;2022-09-25T05:05:05;97561.94;;;7.12;100.00
36600;BME280;35385;55.668;37.508;2022-09-25T05:06:05;97559.00;;;7.15;100.00
36600;BME280;35385;55.668;37.508;2022-09-25T05:07:06;97567.78;;;7.16;100.00
36600;BME280;35385;55.668;37.508;2022-09-25T05:08:07;97545.31;;;7.02;100.00
36600;BME280;35385;55.668;37.508;2022-09-25T05:09:08;97489.59;;;6.58;100.00
36600;BME280;35385;55.668;37.508;2022-09-25T05:10:09;97517.28;;;6.82;100.00
36600;BME280;35385;55.668;37.508;2022-09-25T05:11:09;97508.28;;;6.74;100.00
36600;BME280;35385;55.668;37.508;2022-09-25T05:12:10;97511.94;;;6.73;100.00
36600;BME280;35385;55.668;37.508;2022-09-25T05:13:11;97555.66;;;7.13;100.00
36600;BME280;35385;55.668;37.508;2022-09-25T05:14:11;97563.69;;;7.21;100.00
36600;BME280;35385;55.668;37.508;2022-09-25T05:15:13;97566.16;;;7.23;100.00
36600;BME280;35385;55.668;37.508;2022-09-25T05:16:14;97568.50;;;7.26;100.00
36600;BME280;35385;55.668;37.508;2022-09-25T05:17:14;97547.09;;;7.19;100.00
36600;BME280;35385;55.668;37.508;2022-09-25T05:18:17;97551.72;;;7.17;100.00
36600;BME280;35385;55.668;37.508;2022-09-25T05:19:19;97578.78;;;7.21;100.00
36600;BME280;35385;55.668;37.508;2022-09-25T05:20:19;97539.00;;;7.03;100.00
36600;BME280;35385;55.668;37.508;2022-09-25T05:21:19;97555.41;;;7.24;100.00
36600;BME280;35385;55.668;37.508;2022-09-25T05:22:20;97482.75;;;6.73;100.00
36600;BME280;35385;55.668;37.508;2022-09-25T05:23:21;97547.09;;;7.19;100.00
36600;BME280;35385;55.668;37.508;2022-09-25T05:24:21;97518.75;;;7.02;100.00
36600;BME280;35385;55.668;37.508;2022-09-25T05:25:23;97570.03;;;7.28;100.00
36600;BME280;35385;55.668;37.508;2022-09-25T05:26:25;97577.03;;;7.37;100.00
36600;BME280;35385;55.668;37.508;2022-09-25T05:27:27;97582.69;;;7.34;100.00
36600;BME280;35385;55.668;37.508;2022-09-25T05:28:29;97564.69;;;7.20;100.00
36600;BME280;35385;55.668;37.508;2022-09-25T05:29:30;97581.34;;;7.30;100.00
36600;BME280;35385;55.668;37.508;2022-09-25T05:30:33;97583.00;;;7.31;100.00
36600;BME280;35385;55.668;37.508;2022-09-25T05:31:34;97506.94;;;6.96;100.00
36600;BME280;35385;55.668;37.508;2022-09-25T05:32:34;97576.75;;;7.40;100.00
36600;BME280;35385;55.668;37.508;2022-09-25T05:33:35;97550.88;;;7.17;100.00
36600;BME280;35385;55.668;37.508;2022-09-25T05:34:35;97574.53;;;7.36;100.00
36600;BME280;35385;55.668;37.508;2022-09-25T05:35:36;97572.31;;;7.23;100.00
36600;BME280;35385;55.668;37.508;2022-09-25T05:36:36;97602.03;;;7.27;100.00
36600;BME280;35385;55.668;37.508;2022-09-25T05:37:37;97589.06;;;7.24;100.00
36600;BME280;35385;55.668;37.508;2022-09-25T05:38:39;97582.78;;;7.25;100.00
36600;BME280;35385;55.668;37.508;2022-09-25T05:39:39;97599.41;;;7.27;100.00
36600;BME280;35385;55.668;37.508;2022-09-25T05:40:40;97585.13;;;7.28;100.00
36600;BME280;35385;55.668;37.508;2022-09-25T05:41:40;97576.13;;;7.21;100.00
36600;BME280;35385;55.668;37.508;2022-09-25T05:42:42;97446.72;;;6.45;100.00
36600;BME280;35385;55.668;37.508;2022-09-25T05:43:44;97608.34;;;7.26;100.00
36600;BME280;35385;55.668;37.508;2022-09-25T05:44:49;97536.84;;;6.81;100.00
36600;BME280;35385;55.668;37.508;2022-09-25T05:45:56;97602.16;;;7.17;100.00
36600;BME280;35385;55.668;37.508;2022-09-25T05:46:57;97595.84;;;7.18;100.00
36600;BME280;35385;55.668;37.508;2022-09-25T05:48:07;97608.50;;;7.24;100.00
36600;BME280;35385;55.668;37.508;2022-09-25T05:49:08;97545.72;;;6.89;100.00
36600;BME280;35385;55.668;37.508;2022-09-25T05:50:10;97593.09;;;7.02;100.00
36600;BME280;35385;55.668;37.508;2022-09-25T05:51:11;97611.25;;;7.15;100.00
36600;BME280;35385;55.668;37.508;2022-09-25T05:52:12;97598.44;;;7.10;100.00
36600;BME280;35385;55.668;37.508;2022-09-25T05:53:12;97587.03;;;6.92;100.00
36600;BME280;35385;55.668;37.508;2022-09-25T05:54:13;97603.28;;;7.15;100.00
36600;BME280;35385;55.668;37.508;2022-09-25T05:55:13;97540.63;;;6.78;100.00
36600;BME280;35385;55.668;37.508;2022-09-25T05:56:14;97541.19;;;6.64;100.00
36600;BME280;35385;55.668;37.508;2022-09-25T05:57:16;97603.84;;;7.00;100.00
36600;BME280;35385;55.668;37.508;2022-09-25T05:58:17;97623.16;;;7.10;100.00
36600;BME280;35385;55.668;37.508;2022-09-25T05:59:17;97611.94;;;7.17;100.00
36600;BME280;35385;55.668;37.508;2022-09-25T06:00:18;97583.88;;;7.14;100.00
36600;BME280;35385;55.668;37.508;2022-09-25T06:01:19;97600.22;;;7.27;100.00